createdAt,value
2022-09-04T00:00:36.697Z,17.44
2022-09-04T00:03:23.676Z,17.39
2022-09-04T00:05:56.373Z,17.34
2022-09-04T00:08:45.595Z,17.34
2022-09-04T00:11:39.218Z,17.31
2022-09-04T00:14:10.786Z,17.29
2022-09-04T00:16:45.963Z,17.27
2022-09-04T00:19:25.855Z,17.25
2022-09-04T00:21:54.535Z,17.26
2022-09-04T00:24:43.883Z,17.25
2022-09-04T00:27:20.521Z,17.23
2022-09-04T00:30:09.545Z,17.23
2022-09-04T00:33:07.672Z,17.19
2022-09-04T00:35:39.997Z,17.19
2022-09-04T00:38:44.613Z,17.18
2022-09-04T00:41:27.223Z,17.16
2022-09-04T00:44:06.832Z,17.15
2022-09-04T00:47:07.123Z,17.09
2022-09-04T00:50:02.894Z,17.03
2022-09-04T00:52:42.397Z,16.99
2022-09-04T00:55:34.096Z,16.94
2022-09-04T00:58:37.429Z,16.88
2022-09-04T01:01:05.486Z,16.83
2022-09-04T01:03:50.544Z,16.77
2022-09-04T01:06:30.794Z,16.75
2022-09-04T01:09:02.414Z,16.77
2022-09-04T01:11:54.866Z,16.77
2022-09-04T01:14:30.790Z,16.74
2022-09-04T01:17:16.311Z,16.77
2022-09-04T01:20:10.317Z,16.78
2022-09-04T01:22:45.316Z,16.76
2022-09-04T01:25:28.862Z,16.79
2022-09-04T01:27:59.801Z,16.79
2022-09-04T01:30:27.623Z,16.75
2022-09-04T01:33:32.969Z,16.76
2022-09-04T01:36:29.071Z,16.72
2022-09-04T01:39:01.105Z,16.70
2022-09-04T01:42:01.324Z,16.69
2022-09-04T01:44:29.161Z,16.68
2022-09-04T01:47:04.771Z,16.68
2022-09-04T01:49:37.464Z,16.67
2022-09-04T01:52:18.435Z,16.68
2022-09-04T01:55:25.430Z,16.69
2022-09-04T01:58:18.559Z,16.66
2022-09-04T02:01:14.504Z,16.64
2022-09-04T02:04:01.649Z,16.65
2022-09-04T02:06:52.789Z,16.64
2022-09-04T02:09:30.947Z,16.59
2022-09-04T02:12:10.226Z,16.62
2022-09-04T02:14:50.683Z,16.59
2022-09-04T02:17:22.208Z,16.58
2022-09-04T02:20:12.270Z,16.57
2022-09-04T02:22:46.664Z,16.59
2022-09-04T02:25:20.359Z,16.59
2022-09-04T02:28:23.006Z,16.59
2022-09-04T02:31:19.818Z,16.56
2022-09-04T02:33:52.119Z,16.55
2022-09-04T02:36:31.271Z,16.52
2022-09-04T02:39:23.375Z,16.50
2022-09-04T02:42:05.134Z,16.41
2022-09-04T02:45:13.282Z,16.39
2022-09-04T02:47:52.249Z,16.35
2022-09-04T02:50:47.309Z,16.36
2022-09-04T02:53:38.912Z,16.34
2022-09-04T02:56:27.625Z,16.31
2022-09-04T02:58:55.253Z,16.30
2022-09-04T03:02:00.597Z,16.27
2022-09-04T03:04:32.944Z,16.27
2022-09-04T03:07:03.645Z,16.27
2022-09-04T03:09:38.776Z,16.28
2022-09-04T03:12:31.361Z,16.29
2022-09-04T03:15:14.669Z,16.35
2022-09-04T03:17:48.860Z,16.38
2022-09-04T03:20:29.026Z,16.43
2022-09-04T03:23:30.107Z,16.48
2022-09-04T03:26:05.439Z,16.53
2022-09-04T03:29:02.519Z,16.57
2022-09-04T03:31:33.306Z,16.60
2022-09-04T03:34:24.495Z,16.65
2022-09-04T03:36:53.284Z,16.69
2022-09-04T03:39:58.432Z,16.71
2022-09-04T03:43:03.721Z,16.76
2022-09-04T03:45:46.372Z,16.75
2022-09-04T03:48:36.320Z,16.72
2022-09-04T03:51:16.131Z,16.67
2022-09-04T03:53:51.045Z,16.71
2022-09-04T03:56:50.982Z,16.70
2022-09-04T03:59:42.025Z,16.64
2022-09-04T04:02:35.334Z,16.60
2022-09-04T04:05:12.372Z,16.62
2022-09-04T04:07:58.420Z,16.66
2022-09-04T04:10:47.840Z,16.69
2022-09-04T04:13:34.521Z,16.69
2022-09-04T04:16:05.209Z,16.73
2022-09-04T04:18:57.325Z,16.75
2022-09-04T04:21:57.007Z,16.73
2022-09-04T04:24:43.541Z,16.72
2022-09-04T04:27:37.207Z,16.74
2022-09-04T04:30:07.930Z,16.73
2022-09-04T04:32:42.192Z,16.78
2022-09-04T04:35:28.811Z,16.71
2022-09-04T04:38:12.789Z,16.70
2022-09-04T04:41:11.213Z,16.67
2022-09-04T04:44:09.544Z,16.68
2022-09-04T04:46:59.820Z,16.67
2022-09-04T04:49:45.949Z,16.59
2022-09-04T04:52:39.419Z,16.64
2022-09-04T04:55:07.465Z,16.69
2022-09-04T04:58:02.284Z,16.63
2022-09-04T05:00:34.551Z,16.62
2022-09-04T05:03:22.803Z,16.55
2022-09-04T05:06:23.140Z,16.52
2022-09-04T05:09:03.301Z,16.60
2022-09-04T05:11:55.728Z,16.61
2022-09-04T05:15:00.823Z,16.61
2022-09-04T05:17:38.643Z,16.65
2022-09-04T05:20:47.917Z,16.73
2022-09-04T05:23:24.900Z,16.77
2022-09-04T05:26:23.243Z,16.73
2022-09-04T05:29:32.309Z,16.79
2022-09-04T05:32:30.869Z,16.84
2022-09-04T05:34:58.699Z,16.90
2022-09-04T05:37:54.419Z,16.94
2022-09-04T05:40:38.659Z,16.97
2022-09-04T05:43:23.123Z,17.11
2022-09-04T05:46:13.578Z,17.16
2022-09-04T05:48:51.445Z,17.30
2022-09-04T05:51:50.055Z,17.27
2022-09-04T05:54:26.831Z,17.30
2022-09-04T05:57:19.103Z,17.30
2022-09-04T05:59:59.540Z,17.36
2022-09-04T06:03:05.221Z,17.37
2022-09-04T06:06:07.127Z,17.38
2022-09-04T06:08:54.798Z,17.47
2022-09-04T06:11:28.195Z,17.45
2022-09-04T06:14:35.623Z,17.41
2022-09-04T06:17:27.642Z,17.41
2022-09-04T06:20:01.265Z,17.43
2022-09-04T06:23:04.387Z,17.44
2022-09-04T06:25:50.535Z,17.48
2022-09-04T06:28:39.496Z,17.54
2022-09-04T06:31:24.448Z,17.57
2022-09-04T06:34:17.190Z,17.61
2022-09-04T06:36:51.076Z,17.65
2022-09-04T06:39:34.583Z,17.65
2022-09-04T06:42:22.841Z,17.68
2022-09-04T06:45:15.470Z,17.73
2022-09-04T06:47:58.389Z,17.69
2022-09-04T06:50:50.645Z,17.72
2022-09-04T06:53:39.709Z,17.67
2022-09-04T06:56:46.693Z,17.71
2022-09-04T06:59:29.813Z,17.76
2022-09-04T07:02:12.406Z,17.82
2022-09-04T07:05:11.244Z,17.84
2022-09-04T07:07:47.975Z,17.90
2022-09-04T07:10:37.134Z,17.88
2022-09-04T07:13:38.293Z,17.85
2022-09-04T07:16:18.165Z,17.92
2022-09-04T07:19:18.108Z,17.98
2022-09-04T07:22:01.598Z,18.11
2022-09-04T07:24:35.350Z,18.23
2022-09-04T07:27:16.914Z,18.30
2022-09-04T07:30:01.642Z,18.38
2022-09-04T07:32:46.396Z,18.48
2022-09-04T07:35:35.506Z,18.51
2022-09-04T07:38:32.839Z,18.53
2022-09-04T07:41:17.642Z,18.56
2022-09-04T07:44:24.592Z,18.57
2022-09-04T07:47:32.543Z,18.58
2022-09-04T07:50:19.984Z,18.63
2022-09-04T07:53:14.829Z,18.65
2022-09-04T07:55:47.985Z,18.67
2022-09-04T07:58:25.852Z,18.70
2022-09-04T08:01:07.773Z,18.85
2022-09-04T08:03:59.945Z,19.13
2022-09-04T08:06:58.314Z,19.27
2022-09-04T08:09:51.911Z,19.54
2022-09-04T08:12:19.567Z,19.90
2022-09-04T08:15:17.462Z,20.15
2022-09-04T08:18:16.536Z,20.27
2022-09-04T08:20:56.308Z,20.49
2022-09-04T08:24:15.168Z,20.61
2022-09-04T08:27:00.903Z,20.94
2022-09-04T08:30:05.445Z,21.05
2022-09-04T08:32:39.299Z,20.99
2022-09-04T08:35:28.391Z,21.29
2022-09-04T08:38:08.106Z,21.37
2022-09-04T08:40:52.222Z,21.51
2022-09-04T08:43:29.130Z,21.63
2022-09-04T08:46:14.961Z,21.71
2022-09-04T08:49:11.658Z,21.88
2022-09-04T08:52:10.847Z,22.17
2022-09-04T08:55:01.938Z,22.36
2022-09-04T08:58:02.403Z,22.58
2022-09-04T09:00:43.999Z,22.72
2022-09-04T09:03:56.748Z,22.91
2022-09-04T09:06:55.416Z,23.03
2022-09-04T09:09:50.808Z,23.22
2022-09-04T09:12:41.434Z,23.24
2022-09-04T09:15:57.450Z,23.33
2022-09-04T09:18:40.599Z,23.40
2022-09-04T09:21:12.639Z,23.49
2022-09-04T09:23:52.519Z,23.56
2022-09-04T09:26:30.625Z,23.80
2022-09-04T09:29:29.493Z,23.83
2022-09-04T09:32:15.902Z,23.92
2022-09-04T09:34:55.994Z,24.15
2022-09-04T09:37:32.184Z,24.37
2022-09-04T09:40:23.539Z,24.49
2022-09-04T09:43:06.627Z,24.55
2022-09-04T09:45:49.363Z,24.57
2022-09-04T09:48:54.872Z,24.67
2022-09-04T09:51:34.626Z,24.75
2022-09-04T09:54:49.397Z,24.89
2022-09-04T09:57:40.136Z,25.10
2022-09-04T10:00:10.344Z,25.04
2022-09-04T10:02:47.030Z,25.06
2022-09-04T10:05:42.333Z,25.18
2022-09-04T10:08:47.328Z,25.32
2022-09-04T10:11:26.794Z,25.42
2022-09-04T10:14:00.622Z,25.59
2022-09-04T10:17:03.113Z,25.73
2022-09-04T10:19:49.489Z,25.79
2022-09-04T10:22:26.209Z,25.97
2022-09-04T10:25:08.999Z,26.02
2022-09-04T10:27:55.496Z,25.96
2022-09-04T10:30:24.237Z,25.97
2022-09-04T10:33:11.507Z,26.16
2022-09-04T10:35:43.546Z,26.18
2022-09-04T10:38:26.426Z,26.26
2022-09-04T10:41:22.047Z,26.26
2022-09-04T10:44:27.322Z,26.29
2022-09-04T10:47:01.685Z,26.35
2022-09-04T10:49:35.468Z,26.45
2022-09-04T10:52:22.937Z,26.61
2022-09-04T10:55:15.930Z,26.71
2022-09-04T10:58:05.842Z,26.80
2022-09-04T11:00:36.556Z,26.89
2022-09-04T11:03:35.406Z,27.05
2022-09-04T11:06:43.453Z,27.20
2022-09-04T11:09:11.204Z,27.20
2022-09-04T11:12:03.036Z,27.39
2022-09-04T11:14:50.997Z,27.60
2022-09-04T11:18:06.074Z,27.66
2022-09-04T11:21:11.088Z,27.60
2022-09-04T11:23:50.814Z,27.77
2022-09-04T11:26:40.346Z,27.87
2022-09-04T11:29:19.129Z,27.94
2022-09-04T11:32:17.169Z,27.75
2022-09-04T11:35:09.290Z,27.97
2022-09-04T11:37:51.914Z,27.93
2022-09-04T11:40:25.032Z,27.89
2022-09-04T11:43:16.585Z,27.97
2022-09-04T11:46:02.537Z,28.15
2022-09-04T11:49:00.349Z,28.28
2022-09-04T11:52:03.356Z,28.39
2022-09-04T11:54:52.602Z,28.53
2022-09-04T11:58:10.935Z,28.51
2022-09-04T12:00:59.620Z,28.64
2022-09-04T12:04:04.671Z,28.73
2022-09-04T12:06:38.567Z,28.99
2022-09-04T12:09:37.203Z,28.95
2022-09-04T12:12:37.881Z,28.94
2022-09-04T12:15:26.899Z,28.96
2022-09-04T12:18:06.528Z,28.89
2022-09-04T12:20:56.685Z,28.90
2022-09-04T12:23:33.215Z,29.09
2022-09-04T12:26:19.095Z,28.98
2022-09-04T12:29:10.414Z,29.01
2022-09-04T12:32:08.306Z,29.24
2022-09-04T12:35:11.295Z,29.40
2022-09-04T12:37:44.749Z,29.43
2022-09-04T12:40:49.698Z,29.51
2022-09-04T12:43:54.363Z,29.64
2022-09-04T12:46:40.522Z,29.87
2022-09-04T12:49:20.134Z,29.93
2022-09-04T12:51:52.446Z,29.97
2022-09-04T12:54:47.246Z,29.97
2022-09-04T12:57:36.215Z,29.91
2022-09-04T13:00:14.370Z,29.95
2022-09-04T13:03:04.054Z,29.97
2022-09-04T13:05:39.408Z,30.08
2022-09-04T13:08:23.258Z,30.07
2022-09-04T13:11:10.194Z,30.10
2022-09-04T13:14:02.861Z,30.09
2022-09-04T13:17:03.175Z,30.17
2022-09-04T13:19:47.104Z,30.28
2022-09-04T13:22:33.375Z,30.42
2022-09-04T13:25:17.343Z,30.45
2022-09-04T13:27:58.579Z,30.53
2022-09-04T13:30:26.733Z,30.63
2022-09-04T13:33:12.302Z,30.47
2022-09-04T13:35:56.428Z,30.31
2022-09-04T13:38:42.396Z,30.09
2022-09-04T13:41:43.969Z,29.74
2022-09-04T13:44:39.508Z,29.64
2022-09-04T13:47:16.979Z,29.55
2022-09-04T13:49:49.252Z,29.61
2022-09-04T13:52:21.342Z,29.41
2022-09-04T13:55:05.584Z,29.42
2022-09-04T13:57:39.972Z,29.29
2022-09-04T14:00:09.160Z,29.23
2022-09-04T14:02:37.866Z,29.19
2022-09-04T14:05:11.709Z,29.22
2022-09-04T14:07:44.764Z,29.22
2022-09-04T14:10:14.349Z,29.18
2022-09-04T14:12:46.627Z,29.05
2022-09-04T14:15:41.405Z,29.07
2022-09-04T14:18:29.059Z,29.03
2022-09-04T14:21:18.304Z,28.99
2022-09-04T14:23:54.167Z,28.89
2022-09-04T14:26:37.384Z,28.70
2022-09-04T14:29:27.046Z,28.66
2022-09-04T14:32:19.827Z,28.66
2022-09-04T14:35:09.671Z,28.54
2022-09-04T14:38:03.484Z,28.40
2022-09-04T14:40:35.030Z,28.32
2022-09-04T14:43:18.284Z,28.21
2022-09-04T14:45:55.409Z,28.09
2022-09-04T14:48:25.422Z,27.95
2022-09-04T14:50:58.791Z,27.98
2022-09-04T14:53:30.294Z,27.94
2022-09-04T14:56:08.326Z,27.85
2022-09-04T14:58:46.797Z,27.70
2022-09-04T15:01:22.728Z,27.55
2022-09-04T15:04:13.611Z,27.36
2022-09-04T15:07:11.557Z,27.27
2022-09-04T15:09:40.577Z,27.18
2022-09-04T15:12:24.784Z,27.10
2022-09-04T15:15:25.567Z,27.03
2022-09-04T15:18:18.200Z,26.86
2022-09-04T15:20:59.993Z,26.79
2022-09-04T15:23:38.570Z,26.72
2022-09-04T15:26:08.552Z,26.62
2022-09-04T15:32:01.351Z,26.49
2022-09-04T15:34:29.435Z,26.34
2022-09-04T15:37:45.295Z,26.23
2022-09-04T15:43:52.898Z,25.99
2022-09-04T15:46:55.373Z,26.00
2022-09-04T15:49:41.788Z,25.95
2022-09-04T15:52:31.954Z,25.86
2022-09-04T15:55:26.293Z,25.81
2022-09-04T15:58:06.340Z,25.75
2022-09-04T16:00:38.048Z,25.70
2022-09-04T16:03:30.303Z,25.65
2022-09-04T16:06:00.550Z,25.61
2022-09-04T16:08:30.593Z,25.57
2022-09-04T16:11:01.316Z,25.54
2022-09-04T16:13:30.011Z,25.53
2022-09-04T16:16:04.596Z,25.50
2022-09-04T16:18:38.650Z,25.50
2022-09-04T16:21:21.796Z,25.47
2022-09-04T16:23:49.622Z,25.41
2022-09-04T16:26:20.425Z,25.35
2022-09-04T16:28:56.895Z,25.31
2022-09-04T16:31:32.167Z,25.24
2022-09-04T16:34:03.901Z,25.18
2022-09-04T16:36:45.221Z,25.11
2022-09-04T16:39:38.835Z,25.08
2022-09-04T16:42:26.521Z,25.01
2022-09-04T16:45:12.072Z,24.98
2022-09-04T16:47:48.571Z,24.94
2022-09-04T16:50:24.732Z,24.86
2022-09-04T16:53:13.760Z,24.84
2022-09-04T16:56:00.003Z,24.76
2022-09-04T16:58:47.289Z,24.81
2022-09-04T17:01:21.122Z,24.71
2022-09-04T17:04:12.937Z,24.63
2022-09-04T17:07:09.863Z,24.62
2022-09-04T17:10:25.896Z,24.58
2022-09-04T17:12:59.392Z,24.47
2022-09-04T17:15:59.699Z,24.40
2022-09-04T17:18:28.208Z,24.29
2022-09-04T17:29:15.828Z,24.03
2022-09-04T17:40:41.261Z,23.95
2022-09-04T17:40:47.892Z,23.89
2022-09-04T17:40:47.892Z,23.77
2022-09-04T17:43:23.415Z,23.71
2022-09-04T17:46:03.260Z,23.65
2022-09-04T17:48:32.751Z,23.53
2022-09-04T17:51:04.694Z,23.44
2022-09-04T17:53:34.812Z,23.36
2022-09-04T17:56:13.501Z,23.27
2022-09-04T17:58:50.598Z,23.17
2022-09-04T18:01:20.547Z,23.10
2022-09-04T18:04:02.782Z,23.07
2022-09-04T18:06:59.141Z,23.01
2022-09-04T18:09:56.430Z,22.87
2022-09-04T18:12:46.125Z,22.83
2022-09-04T18:15:33.751Z,22.75
2022-09-04T18:18:23.437Z,22.67
2022-09-04T18:21:31.662Z,22.58
2022-09-04T18:24:08.657Z,22.48
2022-09-04T18:26:46.894Z,22.35
2022-09-04T18:29:56.844Z,22.29
2022-09-04T18:37:19.847Z,22.26
2022-09-04T18:37:20.592Z,22.16
2022-09-04T18:39:08.758Z,22.02
2022-09-04T18:47:53.318Z,21.91
2022-09-04T18:50:24.012Z,21.87
2022-09-04T18:50:38.910Z,21.86
2022-09-04T18:53:35.271Z,21.75
2022-09-04T18:56:23.763Z,21.72
2022-09-04T18:58:57.713Z,21.63
2022-09-04T19:01:43.786Z,21.59
2022-09-04T19:04:46.209Z,21.52
2022-09-04T19:07:32.949Z,21.47
2022-09-04T19:10:21.126Z,21.44
2022-09-04T19:12:59.804Z,21.30
2022-09-04T19:15:45.843Z,21.26
2022-09-04T19:18:28.482Z,21.23
2022-09-04T19:21:14.892Z,21.20
2022-09-04T19:24:03.350Z,21.12
2022-09-04T19:26:51.152Z,21.02
2022-09-04T19:29:21.016Z,21.01
2022-09-04T19:32:06.177Z,21.01
2022-09-04T19:34:43.121Z,20.91
2022-09-04T19:38:19.263Z,20.85
2022-09-04T19:46:11.287Z,20.79
2022-09-04T19:46:19.778Z,20.77
2022-09-04T19:46:25.703Z,20.69
2022-09-04T19:53:18.629Z,20.67
2022-09-04T19:53:24.471Z,20.69
2022-09-04T19:55:24.004Z,20.70
2022-09-04T19:57:52.725Z,20.62
2022-09-04T20:00:42.888Z,20.50
2022-09-04T20:03:45.503Z,20.47
2022-09-04T20:06:35.954Z,20.40
2022-09-04T20:09:08.768Z,20.29
2022-09-04T20:11:56.379Z,20.19
2022-09-04T20:14:41.377Z,20.18
2022-09-04T20:17:32.083Z,20.13
2022-09-04T20:20:02.565Z,20.05
2022-09-04T20:22:50.176Z,20.00
2022-09-04T20:25:25.512Z,20.01
2022-09-04T20:28:16.399Z,19.98
2022-09-04T20:30:45.902Z,19.90
2022-09-04T20:33:25.295Z,19.87
2022-09-04T20:36:01.102Z,19.80
2022-09-04T20:38:57.033Z,19.78
2022-09-04T20:41:37.394Z,19.77
2022-09-04T20:44:13.765Z,19.73
2022-09-04T20:51:13.797Z,19.67
2022-09-04T20:53:05.756Z,19.66
2022-09-04T20:53:20.278Z,19.58
2022-09-04T20:55:51.085Z,19.57
2022-09-04T21:02:50.654Z,19.55
2022-09-04T21:03:09.890Z,19.51
2022-09-04T21:04:18.285Z,19.49
2022-09-04T21:07:08.819Z,19.44
2022-09-04T21:09:59.275Z,19.41
2022-09-04T21:12:40.332Z,19.35
2022-09-04T21:15:18.753Z,19.29
2022-09-04T21:18:01.092Z,19.26
2022-09-04T21:20:59.879Z,19.25
2022-09-04T21:23:53.027Z,19.22
2022-09-04T21:26:32.369Z,19.19
2022-09-04T21:29:42.008Z,19.14
2022-09-04T21:32:20.576Z,19.12
2022-09-04T21:34:59.061Z,19.12
2022-09-04T21:37:45.760Z,19.06
2022-09-04T21:40:52.746Z,19.04
2022-09-04T21:43:35.607Z,18.99
2022-09-04T21:46:32.821Z,18.95
2022-09-04T21:49:30.272Z,18.92
2022-09-04T21:52:20.881Z,18.91
2022-09-04T21:57:06.854Z,18.85
2022-09-04T22:02:27.500Z,18.80
2022-09-04T22:02:45.023Z,18.78
2022-09-04T22:03:58.719Z,18.74
2022-09-04T22:11:55.610Z,18.73
2022-09-04T22:13:30.217Z,18.70
2022-09-04T22:13:41.988Z,18.69
2022-09-04T22:16:14.503Z,18.65
2022-09-04T22:19:01.017Z,18.66
2022-09-04T22:22:03.504Z,18.64
2022-09-04T22:25:02.393Z,18.64
2022-09-04T22:28:09.703Z,18.65
2022-09-04T22:30:51.833Z,18.63
2022-09-04T22:33:34.896Z,18.61
2022-09-04T22:36:25.058Z,18.58
2022-09-04T22:39:05.040Z,18.57
2022-09-04T22:42:06.566Z,18.58
2022-09-04T22:45:10.243Z,18.55
2022-09-04T22:47:44.424Z,18.50
2022-09-04T22:50:40.737Z,18.50
2022-09-04T22:53:19.024Z,18.46
2022-09-04T22:56:23.310Z,18.46
2022-09-04T22:59:26.905Z,18.48
2022-09-04T23:02:13.746Z,18.46
2022-09-04T23:05:15.669Z,18.44
2022-09-04T23:13:32.557Z,18.41
2022-09-04T23:14:01.803Z,18.40
2022-09-04T23:14:12.057Z,18.31
2022-09-04T23:16:52.089Z,18.28
2022-09-04T23:23:01.347Z,18.29
2022-09-04T23:26:42.367Z,18.22
2022-09-04T23:26:48.006Z,18.24
2022-09-04T23:29:44.592Z,18.21
2022-09-04T23:32:34.077Z,18.21
2022-09-04T23:35:36.261Z,18.20
2022-09-04T23:38:37.457Z,18.13
2022-09-04T23:41:12.661Z,18.11
2022-09-04T23:44:25.420Z,18.12
2022-09-04T23:47:06.868Z,18.14
2022-09-04T23:49:59.169Z,18.09
2022-09-04T23:52:49.287Z,18.10
2022-09-04T23:55:37.250Z,18.10
2022-09-04T23:58:35.600Z,18.09
